Terminal Aerodrome Forecast
Issued by NWS

Home | Current Version | Previous Version | Text Only | Print | Product List | Glossary On
Versions: 1 2 3 4 5 6 7 8 9 10 11 12 13 14 15 16 17 18 19 20 21 22 23 24 25 26
000
FTUS42 KFFC 212339
TAFFTY
TAF
KFTY 212339Z 2200/2224 21004KT P6SM BKN017 OVC120
     FM220200 20005KT 6SM BR BKN012 OVC015
     FM220600 15005KT 3SM BR VCSH OVC005
     FM220700 19010KT 2SM TSRA OVC007CB
     FM221500 20010KT P6SM VCSH BKN010 PROB30 2219/2223 3SM TSRA
      BKN020CB=

USA.gov is the U.S. government's official web portal to all federal, state and local government web resources and services.